createdAt,value
2023-01-06T00:03:10.156Z,7.26
2023-01-06T00:07:10.057Z,7.26
2023-01-06T00:11:09.356Z,7.26
2023-01-06T00:15:09.023Z,7.26
2023-01-06T00:19:09.582Z,7.26
2023-01-06T00:23:09.046Z,7.26
2023-01-06T00:27:09.238Z,7.26
2023-01-06T00:31:09.427Z,7.26
2023-01-06T00:35:09.034Z,7.26
2023-01-06T00:39:09.038Z,7.26
2023-01-06T00:43:09.449Z,7.26
2023-01-06T00:47:09.736Z,7.26
2023-01-06T00:51:09.543Z,7.26
2023-01-06T00:55:09.605Z,7.26
2023-01-06T00:59:09.517Z,7.26
2023-01-06T01:03:10.659Z,7.26
2023-01-06T01:07:09.097Z,7.26
2023-01-06T01:11:09.040Z,7.26
2023-01-06T01:15:09.443Z,7.26
2023-01-06T01:19:09.319Z,7.26
2023-01-06T01:23:09.477Z,7.26
2023-01-06T01:27:09.797Z,7.26
2023-01-06T01:31:10.140Z,7.26
2023-01-06T01:35:09.770Z,7.26
2023-01-06T01:39:08.924Z,7.26
2023-01-06T01:43:09.133Z,7.26
2023-01-06T01:47:09.539Z,7.26
2023-01-06T01:51:09.397Z,7.26
2023-01-06T01:55:09.619Z,7.26
2023-01-06T01:59:09.296Z,7.26
2023-01-06T02:03:09.865Z,7.26
2023-01-06T02:07:09.164Z,7.26
2023-01-06T02:11:09.375Z,7.26
2023-01-06T02:15:09.471Z,7.26
2023-01-06T02:19:09.673Z,7.26
2023-01-06T02:23:08.881Z,7.26
2023-01-06T02:27:09.967Z,7.26
2023-01-06T02:31:09.871Z,7.26
2023-01-06T02:35:08.932Z,7.26
2023-01-06T02:39:09.142Z,7.26
2023-01-06T02:43:09.643Z,7.26
2023-01-06T02:47:09.994Z,7.26
2023-01-06T02:51:09.906Z,7.26
2023-01-06T02:55:08.988Z,7.26
2023-01-06T02:59:08.966Z,7.26
2023-01-06T03:03:10.219Z,7.26
2023-01-06T03:07:09.630Z,7.26
2023-01-06T03:11:09.768Z,7.26
2023-01-06T03:15:09.642Z,7.26
2023-01-06T03:19:09.977Z,7.26
2023-01-06T03:23:09.712Z,7.26
2023-01-06T03:27:09.100Z,7.26
2023-01-06T03:31:09.301Z,7.26
2023-01-06T03:35:09.150Z,7.26
2023-01-06T03:39:09.471Z,7.26
2023-01-06T03:43:27.932Z,7.26
2023-01-06T03:47:10.379Z,7.26
2023-01-06T03:51:09.131Z,7.26
2023-01-06T03:55:09.391Z,7.26
2023-01-06T03:59:09.093Z,7.26
2023-01-06T04:03:09.720Z,7.26
2023-01-06T04:07:08.947Z,7.26
2023-01-06T04:11:09.823Z,7.26
2023-01-06T04:15:09.240Z,7.26
2023-01-06T04:19:08.942Z,7.26
2023-01-06T04:23:09.171Z,7.26
2023-01-06T04:27:09.018Z,7.26
2023-01-06T04:31:09.562Z,7.26
2023-01-06T04:35:09.714Z,7.26
2023-01-06T04:39:09.808Z,7.26
2023-01-06T04:43:09.110Z,7.26
2023-01-06T04:47:09.170Z,7.26
2023-01-06T04:51:09.459Z,7.26
2023-01-06T04:55:09.119Z,7.26
2023-01-06T04:59:09.551Z,7.26
2023-01-06T05:03:09.133Z,7.26
2023-01-06T05:07:08.832Z,7.26
2023-01-06T05:11:09.106Z,7.26
2023-01-06T05:15:09.265Z,7.26
2023-01-06T05:19:10.047Z,7.26
2023-01-06T05:23:09.563Z,7.26
2023-01-06T05:27:09.815Z,7.26
2023-01-06T05:31:09.979Z,7.26
2023-01-06T05:35:09.109Z,7.26
2023-01-06T05:39:08.931Z,7.26
2023-01-06T05:43:09.415Z,7.26
2023-01-06T05:47:09.630Z,7.26
2023-01-06T05:51:09.438Z,7.26
2023-01-06T05:55:09.798Z,7.26
2023-01-06T05:59:09.804Z,7.26
2023-01-06T06:03:10.176Z,7.26
2023-01-06T06:07:09.722Z,7.26
2023-01-06T06:11:10.118Z,7.26
2023-01-06T06:15:09.089Z,7.26
2023-01-06T06:19:09.407Z,7.26
2023-01-06T06:23:09.561Z,7.26
2023-01-06T06:27:09.532Z,7.26
2023-01-06T06:31:09.687Z,7.26
2023-01-06T06:35:09.304Z,7.26
2023-01-06T06:39:09.255Z,7.26
2023-01-06T06:43:09.099Z,7.26
2023-01-06T06:47:09.346Z,7.26
2023-01-06T06:51:09.440Z,7.26
2023-01-06T06:55:09.499Z,7.26
2023-01-06T06:59:09.666Z,7.26
2023-01-06T07:03:09.865Z,7.26
2023-01-06T07:07:11.726Z,7.26
2023-01-06T07:11:09.551Z,7.26
2023-01-06T07:15:09.706Z,7.26
2023-01-06T07:19:09.386Z,7.26
2023-01-06T07:23:09.511Z,7.26
2023-01-06T07:27:09.621Z,7.26
2023-01-06T07:31:09.696Z,7.26
2023-01-06T07:35:09.525Z,7.26
2023-01-06T07:39:09.458Z,7.26
2023-01-06T07:43:09.327Z,7.26
2023-01-06T07:47:09.596Z,7.26
2023-01-06T07:51:11.788Z,7.26
2023-01-06T07:55:09.593Z,7.26
2023-01-06T07:59:09.742Z,7.26
2023-01-06T08:03:10.545Z,7.26
2023-01-06T08:07:09.641Z,7.26
2023-01-06T08:11:09.586Z,7.26
2023-01-06T08:15:09.600Z,7.26
2023-01-06T08:19:09.708Z,7.26
2023-01-06T08:23:09.580Z,7.26
2023-01-06T08:27:09.756Z,7.26
2023-01-06T08:31:09.697Z,7.26
2023-01-06T08:35:09.717Z,7.26
2023-01-06T08:39:09.518Z,7.26
2023-01-06T08:43:09.778Z,7.26
2023-01-06T08:47:10.215Z,7.26
2023-01-06T08:51:12.538Z,7.26
2023-01-06T08:55:09.822Z,7.26
2023-01-06T08:59:09.810Z,7.26
2023-01-06T09:03:10.050Z,7.26
2023-01-06T09:07:09.479Z,7.26
2023-01-06T09:11:09.725Z,7.26
2023-01-06T09:15:09.721Z,7.26
2023-01-06T09:19:08.928Z,7.26
2023-01-06T09:23:09.108Z,7.26
2023-01-06T09:27:09.053Z,7.26
2023-01-06T09:31:09.462Z,7.26
2023-01-06T09:35:09.317Z,7.26
2023-01-06T09:39:09.640Z,7.26
2023-01-06T09:43:09.607Z,7.26
2023-01-06T09:47:10.237Z,7.26
2023-01-06T09:51:09.135Z,7.26
2023-01-06T09:55:09.341Z,7.26
2023-01-06T09:59:09.203Z,7.26
2023-01-06T10:03:10.042Z,7.26
2023-01-06T10:07:09.991Z,7.26
2023-01-06T10:11:09.910Z,7.26
2023-01-06T10:15:09.024Z,7.26
2023-01-06T10:19:09.120Z,7.26
2023-01-06T10:23:09.266Z,7.26
2023-01-06T10:27:09.023Z,7.26
2023-01-06T10:31:18.532Z,7.26
2023-01-06T10:35:09.271Z,7.26
2023-01-06T10:39:09.359Z,7.26
2023-01-06T10:43:09.659Z,7.26
2023-01-06T10:47:09.996Z,7.26
2023-01-06T10:51:09.747Z,7.26
2023-01-06T10:55:09.364Z,7.26
2023-01-06T10:59:09.499Z,7.26
2023-01-06T11:03:36.843Z,7.26
2023-01-06T11:07:09.711Z,7.26
2023-01-06T11:11:16.562Z,0.42
2023-01-06T11:15:09.473Z,0.1
2023-01-06T11:19:09.456Z,0.1
2023-01-06T11:23:09.829Z,0.05
2023-01-06T11:27:09.190Z,3.41
2023-01-06T11:31:09.908Z,3.41
2023-01-06T11:35:08.872Z,0.03
2023-01-06T11:39:09.509Z,2.34
2023-01-06T11:43:09.633Z,2.34
2023-01-06T11:47:09.973Z,2.09
2023-01-06T11:51:09.968Z,0.02
2023-01-06T11:55:09.494Z,0.02
2023-01-06T11:59:09.706Z,0.02
2023-01-06T12:03:10.265Z,0.02
2023-01-06T12:07:09.730Z,0.02
2023-01-06T12:11:10.006Z,1.53
2023-01-06T12:15:31.363Z,0.01
2023-01-06T12:19:10.323Z,0.01
2023-01-06T12:23:09.172Z,1.41
2023-01-06T12:27:10.070Z,0.01
2023-01-06T12:31:09.537Z,0.01
2023-01-06T12:35:09.238Z,0.01
2023-01-06T12:39:09.657Z,0.01
2023-01-06T12:43:11.861Z,0.01
2023-01-06T12:47:09.884Z,1.25
2023-01-06T12:51:09.216Z,1.25
2023-01-06T12:55:09.304Z,1.22
2023-01-06T12:59:09.220Z,0.01
2023-01-06T13:03:10.313Z,0.01
2023-01-06T13:07:09.722Z,0.01
2023-01-06T13:11:09.684Z,1.12
2023-01-06T13:15:09.574Z,1.08
2023-01-06T13:19:11.403Z,0.01
2023-01-06T13:23:09.738Z,1.04
2023-01-06T13:27:09.430Z,1.04
2023-01-06T13:31:10.040Z,0.01
2023-01-06T13:35:09.161Z,0.01
2023-01-06T13:39:09.144Z,0.01
2023-01-06T13:43:09.020Z,0.01
2023-01-06T13:47:09.608Z,0.01
2023-01-06T13:51:09.051Z,0.01
2023-01-06T13:55:09.186Z,0.01
2023-01-06T13:59:09.097Z,0.01
2023-01-06T14:03:10.912Z,0.01
2023-01-06T14:07:09.897Z,0.01
2023-01-06T14:11:09.523Z,0.01
2023-01-06T14:15:09.562Z,0.01
2023-01-06T14:19:09.481Z,0.01
2023-01-06T14:23:09.571Z,0.01
2023-01-06T14:27:09.779Z,0.01
2023-01-06T14:31:09.946Z,0.01
2023-01-06T14:35:09.717Z,0.01
2023-01-06T14:39:09.456Z,0.01
2023-01-06T14:43:09.349Z,6.1
2023-01-06T14:47:09.571Z,0.03
2023-01-06T14:51:21.684Z,0.03
2023-01-06T14:55:09.530Z,0.02
2023-01-06T14:59:09.811Z,0.02
2023-01-06T15:03:11.684Z,0.02
2023-01-06T15:07:09.588Z,0.02
2023-01-06T15:11:09.572Z,0.02
2023-01-06T15:15:13.662Z,0.02
2023-01-06T15:19:09.820Z,0.02
2023-01-06T15:23:09.577Z,0.02
2023-01-06T15:27:09.538Z,0.02
2023-01-06T15:31:09.259Z,0.02
2023-01-06T15:35:10.285Z,0.02
2023-01-06T15:39:09.530Z,0.02
2023-01-06T15:43:09.810Z,0.02
2023-01-06T15:47:10.103Z,0.02
2023-01-06T15:51:09.915Z,0.02
2023-01-06T15:55:09.666Z,0.02
2023-01-06T15:59:09.230Z,0.02
2023-01-06T16:03:09.746Z,0.02
2023-01-06T16:07:19.286Z,0.02
2023-01-06T16:11:11.586Z,0.02
2023-01-06T16:15:09.453Z,0.02
2023-01-06T16:19:12.202Z,0.02
2023-01-06T16:23:09.089Z,0.02
2023-01-06T16:27:12.113Z,0.02
2023-01-06T16:31:09.887Z,0.02
2023-01-06T16:35:09.488Z,0.02
2023-01-06T16:39:09.538Z,0.02
2023-01-06T16:43:09.195Z,0.02
2023-01-06T16:47:10.347Z,0.02
2023-01-06T16:51:09.653Z,0.02
2023-01-06T16:55:09.474Z,0.02
2023-01-06T16:59:09.747Z,0.02
2023-01-06T17:03:10.097Z,0.02
2023-01-06T17:07:09.301Z,0.02
2023-01-06T17:11:09.248Z,0.02
2023-01-06T17:15:09.049Z,0.02
2023-01-06T17:19:11.356Z,0.02
2023-01-06T17:23:09.926Z,0.02
2023-01-06T17:27:09.749Z,0.02
2023-01-06T17:31:09.854Z,0.02
2023-01-06T17:35:10.346Z,0.02
2023-01-06T17:39:09.649Z,0.02
2023-01-06T17:43:09.958Z,0.02
2023-01-06T17:47:09.811Z,0.02
2023-01-06T17:51:12.100Z,0.02
2023-01-06T17:55:09.336Z,0.02
2023-01-06T17:59:09.444Z,0.02
2023-01-06T18:03:09.661Z,0.02
2023-01-06T18:07:09.518Z,0.02
2023-01-06T18:11:09.929Z,0.02
2023-01-06T18:15:12.022Z,0.02
2023-01-06T18:19:09.470Z,0.02
2023-01-06T18:23:09.473Z,0.02
2023-01-06T18:27:09.303Z,0.02
2023-01-06T18:31:09.387Z,0.02
2023-01-06T18:35:09.535Z,0.02
2023-01-06T18:39:09.435Z,0.02
2023-01-06T18:43:10.922Z,0.02
2023-01-06T18:47:09.314Z,0.02
2023-01-06T18:51:09.121Z,0.02
2023-01-06T18:55:09.353Z,0.02
2023-01-06T18:59:09.562Z,0.02
2023-01-06T19:03:09.787Z,0.02
2023-01-06T19:07:12.457Z,0.02
2023-01-06T19:11:09.622Z,0.02
2023-01-06T19:15:09.825Z,0.02
2023-01-06T19:19:09.790Z,0.02
2023-01-06T19:23:09.099Z,0.02
2023-01-06T19:27:08.954Z,0.02
2023-01-06T19:31:09.400Z,0.02
2023-01-06T19:35:09.206Z,0.02
2023-01-06T19:39:09.369Z,0.02
2023-01-06T19:43:09.300Z,0.02
2023-01-06T19:47:09.540Z,0.02
2023-01-06T19:51:09.444Z,0.02
2023-01-06T19:55:09.447Z,0.02
2023-01-06T19:59:09.568Z,0.02
2023-01-06T20:03:09.998Z,0.02
2023-01-06T20:07:09.176Z,0.02
2023-01-06T20:11:09.199Z,0.02
2023-01-06T20:15:09.654Z,0.02
2023-01-06T20:19:09.450Z,0.02
2023-01-06T20:23:09.610Z,0.02
2023-01-06T20:27:09.737Z,0.02
2023-01-06T20:31:09.782Z,0.02
2023-01-06T20:35:09.599Z,0.02
2023-01-06T20:39:09.620Z,0.02
2023-01-06T20:43:09.886Z,0.02
2023-01-06T20:47:09.214Z,0.02
2023-01-06T20:51:09.340Z,0.02
2023-01-06T20:55:09.174Z,0.02
2023-01-06T20:59:09.517Z,0.02
2023-01-06T21:03:10.501Z,0.02
2023-01-06T21:07:09.420Z,0.02
2023-01-06T21:11:09.840Z,0.02
2023-01-06T21:15:08.949Z,0.02
2023-01-06T21:19:09.074Z,0.02
2023-01-06T21:23:09.208Z,0.02
2023-01-06T21:27:09.267Z,0.02
2023-01-06T21:31:09.847Z,0.02
2023-01-06T21:35:09.585Z,0.02
2023-01-06T21:39:09.667Z,0.02
2023-01-06T21:43:09.448Z,0.02
2023-01-06T21:47:10.072Z,0.02
2023-01-06T21:51:12.104Z,0.02
2023-01-06T21:55:09.168Z,0.02
2023-01-06T21:59:09.021Z,0.02
2023-01-06T22:03:10.569Z,0.02
2023-01-06T22:07:09.490Z,0.02
2023-01-06T22:11:11.952Z,0.02
2023-01-06T22:15:09.423Z,0.02
2023-01-06T22:19:09.319Z,0.02
2023-01-06T22:23:09.308Z,0.02
2023-01-06T22:27:09.247Z,0.02
2023-01-06T22:31:10.143Z,0.02
2023-01-06T22:35:09.574Z,0.02
2023-01-06T22:39:09.725Z,0.02
2023-01-06T22:43:09.701Z,0.02
2023-01-06T22:47:10.006Z,0.02
2023-01-06T22:51:10.036Z,0.02
2023-01-06T22:55:09.807Z,0.02
2023-01-06T22:59:09.715Z,0.02
2023-01-06T23:03:11.545Z,0.02
2023-01-06T23:07:09.661Z,0.02
2023-01-06T23:11:09.690Z,0.02
2023-01-06T23:15:09.583Z,0.02
2023-01-06T23:19:09.811Z,0.02
2023-01-06T23:23:09.726Z,0.02
2023-01-06T23:27:09.679Z,0.02
2023-01-06T23:31:09.870Z,0.02
2023-01-06T23:35:09.941Z,0.02
2023-01-06T23:39:11.261Z,0.02
2023-01-06T23:43:21.575Z,0.02
2023-01-06T23:47:10.355Z,0.02
2023-01-06T23:51:09.210Z,0.02
2023-01-06T23:55:09.681Z,0.02
2023-01-06T23:59:09.303Z,0.02
